Language: 


Des rapports , des résumés tant et plus, au choix de chacun....


Données statistiques de la station
Quotidien Rapport Mars 12, 2017 Unités:  Anglais    Métrique   les deux
« Précédent Jour
Suivant Jour »
Quotidien Hebdomadaire Mensuel Annuel Actuel
  Haut: Bas: Moyen:
Température: 63 °F 38.5 °F 48.7 °F
Pt de rosée: 46 °F 35.8 °F 40.3 °F
Humidité: 95 % 47 % 74 %
Vitesse du vent: 7.6 mph 0 mph 2.1 mph
Rafales: 10.1 mph - -
Vent:- - SSW
Pression: 30 in 29.9 in -
Précipitation: 0 in    
Historical Graphs
 
 
Données statistiques pour Mars 12, 2017
Heure Température Point de rosée Pression Vent Vitesse du vent Refales Humidité Pluie (taux horaire)
00:02 43.5 °F 37.8 °F 30 in NNE 2.9 mph 3.1 mph 80 % 0 in
00:07 43.5 °F 37.8 °F 30 in North 2.5 mph 3.1 mph 80 % 0 in
00:12 43.5 °F 37.8 °F 30 in North 3.1 mph 3.6 mph 80 % 0 in
00:17 43.5 °F 38.1 °F 30 in North 2.7 mph 3.6 mph 81 % 0 in
00:22 43.5 °F 38.1 °F 30 in NNE 2.9 mph 3.4 mph 81 % 0 in
00:27 43.5 °F 37.9 °F 30 in NNE 1.3 mph 3.4 mph 81 % 0 in
00:32 43.5 °F 37.9 °F 30 in NNE 2.2 mph 2.9 mph 81 % 0 in
00:37 43.3 °F 37.9 °F 30 in Calm   2.9 mph 81 % 0 in
00:42 43.2 °F 37.8 °F 30 in NNE 3.1 mph 3.1 mph 81 % 0 in
00:47 43.2 °F 37.8 °F 30 in North 2.5 mph 3.4 mph 81 % 0 in
00:52 43.2 °F 37.8 °F 30 in North 2.9 mph 3.6 mph 81 % 0 in
00:57 43.2 °F 37.9 °F 30 in NNE 2.7 mph 3.6 mph 82 % 0 in
01:02 43.2 °F 37.8 °F 30 in North 3.4 mph 3.8 mph 81 % 0 in
01:07 43.2 °F 37.8 °F 30 in North 2.9 mph 3.8 mph 81 % 0 in
01:12 43 °F 37.6 °F 30 in North 2.2 mph 3.4 mph 81 % 0 in
01:17 43 °F 37.8 °F 30 in North 3.4 mph 3.8 mph 82 % 0 in
01:22 43 °F 37.8 °F 30 in NNE 3.1 mph 4 mph 82 % 0 in
01:28 42.8 °F 37.6 °F 30 in North 2.2 mph 4 mph 82 % 0 in
01:33 42.6 °F 37.6 °F 30 in NNE 2.7 mph 3.4 mph 82 % 0 in
01:38 42.6 °F 37.6 °F 30 in North 3.6 mph 3.8 mph 82 % 0 in
01:43 42.4 °F 37.6 °F 30 in North 2.2 mph 3.8 mph 83 % 0 in
01:48 42.3 °F 37.4 °F 30 in NNE 3.1 mph 3.8 mph 83 % 0 in
01:53 42.3 °F 37.4 °F 29.9 in North 3.6 mph 3.6 mph 83 % 0 in
01:58 42.1 °F 37.2 °F 29.9 in NNE 2.7 mph 3.6 mph 83 % 0 in
02:03 41.7 °F 36.9 °F 29.9 in NNE 1.6 mph 2.9 mph 83 % 0 in
02:08 41.5 °F 36.7 °F 29.9 in NE 2.5 mph 2.9 mph 83 % 0 in
02:13 41.2 °F 36.3 °F 29.9 in NE 2.5 mph 2.9 mph 83 % 0 in
02:18 41 °F 36.5 °F 29.9 in NNE 2 mph 2.9 mph 84 % 0 in
02:23 41 °F 36.5 °F 29.9 in NNE 2.5 mph 2.9 mph 84 % 0 in
02:28 40.8 °F 36.3 °F 29.9 in Calm   2.7 mph 84 % 0 in
02:33 41 °F 36.9 °F 29.9 in North 2.5 mph 2.7 mph 85 % 0 in
02:38 41 °F 37 °F 29.9 in North 3.1 mph 3.4 mph 86 % 0 in
02:43 41.2 °F 37.2 °F 29.9 in North 4 mph 4.3 mph 86 % 0 in
02:48 41.4 °F 37.6 °F 29.9 in NNE 3.6 mph 4.3 mph 86 % 0 in
02:53 41.4 °F 37.6 °F 29.9 in NNE 3.4 mph 4 mph 86 % 0 in
02:58 41.4 °F 37.6 °F 29.9 in NNE 2.7 mph 4 mph 86 % 0 in
03:03 41.2 °F 37.2 °F 29.9 in North 3.4 mph 3.8 mph 86 % 0 in
03:08 41.2 °F 37.2 °F 29.9 in NE 2.5 mph 4 mph 86 % 0 in
03:13 41 °F 37 °F 29.9 in North 2.9 mph 4 mph 86 % 0 in
03:18 41 °F 37 °F 29.9 in Calm   3.4 mph 86 % 0 in
03:23 41 °F 37.4 °F 29.9 in North 2.9 mph 3.4 mph 87 % 0 in
03:28 41 °F 37.4 °F 29.9 in NNE 2.5 mph 3.6 mph 87 % 0 in
03:33 40.8 °F 37.2 °F 29.9 in NNE 2.5 mph 3.6 mph 87 % 0 in
03:38 40.8 °F 37.2 °F 29.9 in NE 2.5 mph 3.6 mph 87 % 0 in
03:43 40.8 °F 37.2 °F 29.9 in North 2.9 mph 3.8 mph 87 % 0 in
03:48 40.8 °F 37.2 °F 29.9 in NNE 2.9 mph 3.8 mph 87 % 0 in
03:53 41 °F 37.8 °F 29.9 in NNE 2.7 mph 3.6 mph 88 % 0 in
03:58 41 °F 37.8 °F 29.9 in NE 3.4 mph 3.6 mph 88 % 0 in
04:03 41 °F 37.8 °F 29.9 in NNE 2.9 mph 3.6 mph 88 % 0 in
04:08 41 °F 37.8 °F 29.9 in NNE 2.9 mph 3.6 mph 88 % 0 in
04:13 41.2 °F 38.1 °F 29.9 in North 2.9 mph 3.4 mph 89 % 0 in
04:18 41.4 °F 38.5 °F 29.9 in NNE 3.8 mph 4 mph 89 % 0 in
04:23 41.2 °F 37.9 °F 29.9 in NNE 2.9 mph 4 mph 88 % 0 in
04:28 40.8 °F 37.6 °F 29.9 in NNE 2.7 mph 4 mph 88 % 0 in
04:33 40.8 °F 37.6 °F 29.9 in NE 3.4 mph 3.6 mph 88 % 0 in
04:38 40.6 °F 37.4 °F 29.9 in NNE 2.7 mph 3.6 mph 88 % 0 in
04:43 40.6 °F 37.8 °F 29.9 in NNE 2.7 mph 3.4 mph 89 % 0 in
04:48 40.6 °F 37.8 °F 29.9 in NNE 3.1 mph 3.6 mph 89 % 0 in
04:53 40.6 °F 37.8 °F 29.9 in NNE 2.5 mph 3.6 mph 89 % 0 in
04:59 40.5 °F 37.6 °F 29.9 in NNE 2 mph 3.4 mph 89 % 0 in
05:04 40.5 °F 37.6 °F 29.9 in NNE 1.6 mph 3.1 mph 89 % 0 in
05:09 40.5 °F 37.6 °F 29.9 in NNE 3.1 mph 3.1 mph 89 % 0 in
05:14 40.5 °F 37.8 °F 29.9 in NNE 2 mph 3.1 mph 90 % 0 in
05:19 40.5 °F 37.8 °F 29.9 in North 2.7 mph 3.1 mph 90 % 0 in
05:24 40.5 °F 37.8 °F 29.9 in North 2.5 mph 3.4 mph 90 % 0 in
05:29 40.5 °F 37.8 °F 29.9 in North 2 mph 3.4 mph 90 % 0 in
05:34 40.5 °F 37.8 °F 29.9 in North 2.7 mph 3.8 mph 90 % 0 in
05:39 40.5 °F 37.8 °F 29.9 in NNE 2.7 mph 3.8 mph 90 % 0 in
05:44 40.5 °F 37.8 °F 29.9 in NNE 3.1 mph 3.8 mph 90 % 0 in
05:49 40.5 °F 37.8 °F 29.9 in NNE 3.6 mph 3.8 mph 90 % 0 in
05:54 40.3 °F 37.6 °F 29.9 in North 2.5 mph 3.8 mph 90 % 0 in
05:59 40.3 °F 37.6 °F 29.9 in Calm   3.1 mph 90 % 0 in
06:04 40.3 °F 37.6 °F 29.9 in Calm   2.5 mph 90 % 0 in
06:09 40.3 °F 37.6 °F 29.9 in Calm     90 % 0 in
06:14 40.3 °F 37.6 °F 29.9 in Calm     90 % 0 in
06:19 40.3 °F 37.6 °F 29.9 in Calm     90 % 0 in
06:24 40.1 °F 37.4 °F 29.9 in Calm     90 % 0 in
06:29 40.1 °F 37.4 °F 29.9 in Calm     90 % 0 in
06:34 39.9 °F 37.2 °F 29.9 in Calm     90 % 0 in
06:39 39.7 °F 37 °F 29.9 in Calm     90 % 0 in
06:44 39.7 °F 37 °F 29.9 in Calm     90 % 0 in
06:49 39.6 °F 36.9 °F 29.9 in Calm     90 % 0 in
06:54 39.6 °F 36.9 °F 29.9 in Calm     90 % 0 in
06:59 39.7 °F 37 °F 29.9 in Calm     90 % 0 in
07:04 39.7 °F 37.2 °F 29.9 in Calm     91 % 0 in
07:09 39.6 °F 36.9 °F 29.9 in Calm     90 % 0 in
07:14 39.2 °F 36.5 °F 29.9 in Calm   1.3 mph 90 % 0 in
07:19 39 °F 36.3 °F 29.9 in Calm   1.3 mph 90 % 0 in
07:24 38.7 °F 36 °F 29.9 in Calm     90 % 0 in
07:29 38.5 °F 35.8 °F 29.9 in ENE 1.3 mph 2 mph 90 % 0 in
07:34 38.7 °F 36.3 °F 29.9 in East 2.7 mph 2.7 mph 91 % 0 in
07:39 39 °F 36.7 °F 29.9 in ENE 2.5 mph 2.7 mph 91 % 0 in
07:44 39.2 °F 37 °F 29.9 in ENE 2.2 mph 2.7 mph 92 % 0 in
07:49 39.4 °F 37.2 °F 29.9 in ENE 1.1 mph 2.7 mph 92 % 0 in
07:54 39.7 °F 37.9 °F 29.9 in Calm   2.2 mph 93 % 0 in
07:59 40.3 °F 38.5 °F 29.9 in Calm   1.1 mph 93 % 0 in
08:04 41 °F 39.4 °F 29.9 in Calm   1.1 mph 94 % 0 in
08:09 42.1 °F 40.6 °F 29.9 in Calm   2 mph 95 % 0 in
08:14 43.2 °F 41.7 °F 29.9 in Calm   2 mph 95 % 0 in
08:19 44.1 °F 42.6 °F 29.9 in Calm   1.6 mph 95 % 0 in
08:24 45.1 °F 43.5 °F 29.9 in Calm   1.1 mph 94 % 0 in
08:29 46.2 °F 44.8 °F 29.9 in ESE 0.9 mph 1.6 mph 94 % 0 in
08:34 47.1 °F 45.3 °F 29.9 in East 2.5 mph 2.7 mph 93 % 0 in
08:39 48 °F 45.9 °F 29.9 in ESE 3.1 mph 4.3 mph 92 % 0 in
08:44 48 °F 44.8 °F 29.9 in ESE 2.5 mph 4.3 mph 88 % 0 in
08:49 47.7 °F 43.7 °F 29.9 in ESE 2.7 mph 4 mph 86 % 0 in
08:54 48 °F 43.9 °F 29.9 in SE 2 mph 3.8 mph 85 % 0 in
08:59 49.3 °F 45 °F 29.9 in SE 0.9 mph 3.6 mph 85 % 0 in
09:04 49.8 °F 45.1 °F 29.9 in Calm   2.7 mph 84 % 0 in
09:10 49.8 °F 44.2 °F 29.9 in SSE 2.7 mph 3.1 mph 81 % 0 in
09:15 50.2 °F 44.2 °F 29.9 in South 1.3 mph 3.1 mph 80 % 0 in
09:20 50.9 °F 45.3 °F 29.9 in SSE 3.6 mph 4 mph 81 % 0 in
09:25 51.8 °F 45.9 °F 29.9 in South 2.9 mph 4.3 mph 80 % 0 in
09:30 52.9 °F 46 °F 29.9 in SSE 3.4 mph 4.7 mph 78 % 0 in
09:35 53.2 °F 45.1 °F 29.9 in SSE 5.6 mph 5.8 mph 74 % 0 in
09:40 53.2 °F 45 °F 29.9 in South 3.4 mph 6.5 mph 73 % 0 in
09:45 54 °F 45.1 °F 29.9 in South 4 mph 6.5 mph 72 % 0 in
09:50 54.3 °F 45.1 °F 29.9 in SSW 4.3 mph 6.3 mph 71 % 0 in
09:55 54.3 °F 44.1 °F 29.9 in SSW 6 mph 6.3 mph 68 % 0 in
10:00 54.1 °F 43.5 °F 29.9 in South 2.9 mph 6.5 mph 67 % 0 in
10:05 54.7 °F 43.3 °F 29.9 in SSE 3.1 mph 6.5 mph 66 % 0 in
10:10 55 °F 43.5 °F 29.9 in SSE 6.5 mph 6.5 mph 65 % 0 in
10:15 54.9 °F 42.1 °F 29.9 in SSE 4 mph 6.5 mph 62 % 0 in
10:20 54.9 °F 42.1 °F 29.9 in SSW 3.8 mph 6.5 mph 62 % 0 in
10:25 55.2 °F 43 °F 29.9 in SSE 2.5 mph 6.7 mph 63 % 0 in
10:30 55.8 °F 43 °F 29.9 in SSE 2.9 mph 6.7 mph 62 % 0 in
10:35 55.9 °F 42.3 °F 29.9 in SSW 5.4 mph 8.1 mph 60 % 0 in
10:40 56.3 °F 42.6 °F 29.9 in SSW 5.6 mph 8.1 mph 60 % 0 in
10:45 56.8 °F 42.3 °F 29.9 in WSW 5.4 mph 9.4 mph 58 % 0 in
10:50 57.2 °F 42.1 °F 29.9 in SSE 4.3 mph 9.4 mph 57 % 0 in
10:55 57.4 °F 41.7 °F 29.9 in South 5.6 mph 10.1 mph 56 % 0 in
11:00 57.4 °F 41.4 °F 29.9 in South 6 mph 10.1 mph 55 % 0 in
11:05 57.4 °F 41.4 °F 29.9 in SSW 5.4 mph 7.8 mph 55 % 0 in
11:10 57.6 °F 42.1 °F 29.9 in SSE 4 mph 6.5 mph 56 % 0 in
11:15 57.9 °F 42.3 °F 29.9 in SSE 3.6 mph 7.6 mph 56 % 0 in
11:20 58.3 °F 42.6 °F 29.9 in SE 2.7 mph 7.6 mph 56 % 0 in
11:21 58.5 °F 42.8 °F 29.9 in South 3.4 mph 6.3 mph 56 % 0 in
11:26 59 °F 42.4 °F 29.9 in SSE 3.8 mph 8.1 mph 54 % 0 in
11:31 59.2 °F 42.4 °F 29.9 in SSE 7.6 mph 8.1 mph 54 % 0 in
11:36 59.5 °F 42.4 °F 29.9 in South 2.9 mph 7.8 mph 53 % 0 in
11:41 59.7 °F 42.4 °F 29.9 in South 3.1 mph 7.8 mph 53 % 0 in
11:46 59.7 °F 42.4 °F 29.9 in SSW 3.8 mph 6 mph 53 % 0 in
11:51 59.7 °F 41.5 °F 29.9 in South 3.6 mph 6 mph 51 % 0 in
11:56 60.3 °F 42.1 °F 29.9 in SSW 3.6 mph 6 mph 51 % 0 in
12:01 60.6 °F 41.7 °F 29.9 in South 4 mph 5.6 mph 50 % 0 in
12:06 60.8 °F 42.1 °F 29.9 in SSW 3.4 mph 5.6 mph 50 % 0 in
12:11 60.8 °F 42.1 °F 29.9 in SSW 2.9 mph 5.4 mph 50 % 0 in
12:16 60.4 °F 41.7 °F 29.9 in SSE 5.4 mph 5.8 mph 50 % 0 in
12:21 60.1 °F 41.9 °F 29.9 in SSW 3.1 mph 5.8 mph 51 % 0 in
12:26 59.9 °F 41.7 °F 29.9 in WSW 2.5 mph 5.4 mph 51 % 0 in
12:31 59.9 °F 41.2 °F 29.9 in SE 0.9 mph 4.7 mph 50 % 0 in
12:37 59.9 °F 41.7 °F 29.9 in South 3.6 mph 4.5 mph 51 % 0 in
12:42 59.7 °F 41 °F 29.9 in SSW 3.6 mph 4.3 mph 50 % 0 in
12:47 59.7 °F 41.5 °F 29.9 in SSW 3.6 mph 4.5 mph 51 % 0 in
12:52 59.9 °F 41.7 °F 29.9 in Calm   4.5 mph 51 % 0 in
12:57 60.3 °F 41.5 °F 29.9 in South 2 mph 4 mph 50 % 0 in
13:02 61 °F 42.3 °F 29.9 in South 2.9 mph 6 mph 50 % 0 in
13:07 61.5 °F 42.6 °F 29.9 in SSE 2.9 mph 6 mph 50 % 0 in
13:12 62.2 °F 42.8 °F 29.9 in SSE 1.1 mph 5.8 mph 49 % 0 in
13:17 63 °F 43 °F 29.9 in SW 3.8 mph 5.8 mph 48 % 0 in
13:22 63 °F 43 °F 29.9 in WSW 4.3 mph 4.3 mph 48 % 0 in
13:27 63 °F 43 °F 29.9 in South 3.1 mph 4.7 mph 48 % 0 in
13:32 63 °F 42.3 °F 29.9 in SSW 1.3 mph 7.2 mph 47 % 0 in
13:37 62.4 °F 42.4 °F 29.9 in West 3.1 mph 7.2 mph 48 % 0 in
13:42 62.1 °F 42.1 °F 29.9 in SSE 2.9 mph 5.4 mph 48 % 0 in
13:47 62.2 °F 42.4 °F 29.9 in South 2.5 mph 4 mph 48 % 0 in
13:52 61.9 °F 41.9 °F 29.9 in WSW 3.8 mph 4 mph 48 % 0 in
13:57 61.5 °F 41.7 °F 29.9 in West 3.4 mph 3.8 mph 48 % 0 in
14:02 61.5 °F 41.5 °F 29.9 in West 0.9 mph 4.3 mph 48 % 0 in
14:07 61.5 °F 41.7 °F 29.9 in Calm   4.3 mph 48 % 0 in
14:12 62.2 °F 42.3 °F 29.9 in SW 2.5 mph 3.6 mph 48 % 0 in
14:17 62.8 °F 42.6 °F 29.9 in West 2.7 mph 3.1 mph 48 % 0 in
14:22 62.8 °F 42.3 °F 29.9 in WSW 2.7 mph 2.9 mph 47 % 0 in
14:27 62.8 °F 42.6 °F 29.9 in Calm   3.8 mph 48 % 0 in
14:33 62.1 °F 41.5 °F 29.9 in West 1.3 mph 4.3 mph 47 % 0 in
14:38 61.9 °F 41.4 °F 29.9 in WNW 2.2 mph 4.3 mph 47 % 0 in
14:43 61.5 °F 41.7 °F 29.9 in Calm   3.1 mph 48 % 0 in
14:48 61.5 °F 41 °F 29.9 in West 1.3 mph 4.9 mph 47 % 0 in
14:53 61.5 °F 41.5 °F 29.9 in Calm   4.9 mph 48 % 0 in
14:58 61.5 °F 41.5 °F 29.9 in Calm   2.9 mph 48 % 0 in
15:03 61.3 °F 40.8 °F 29.9 in Calm   2.5 mph 47 % 0 in
15:08 61.5 °F 41.5 °F 29.9 in Calm   2.9 mph 48 % 0 in
15:13 61.5 °F 41.5 °F 29.9 in Calm   3.4 mph 48 % 0 in
15:18 61.5 °F 41.7 °F 29.9 in WSW 2.2 mph 3.4 mph 48 % 0 in
15:23 62.1 °F 42.6 °F 29.9 in WNW 2.5 mph 3.1 mph 49 % 0 in
15:28 62.1 °F 42.1 °F 29.9 in Calm   3.1 mph 48 % 0 in
15:33 62.1 °F 42.6 °F 29.9 in Calm   2.5 mph 49 % 0 in
15:38 62.1 °F 42.1 °F 29.9 in Calm   2.5 mph 48 % 0 in
15:43 62.1 °F 42.6 °F 29.9 in WNW 0.9 mph 2.5 mph 49 % 0 in
15:48 61.3 °F 42.1 °F 29.9 in Calm   3.6 mph 49 % 0 in
15:53 61.2 °F 41.7 °F 29.9 in Calm   3.6 mph 49 % 0 in
15:58 61.2 °F 41.7 °F 29.9 in Calm   2.7 mph 49 % 0 in
16:06 60.8 °F 41.5 °F 29.9 in North 3.8 mph 3.8 mph 49 % 0 in
18:32 55.6 °F 42.6 °F 29.9 in North 1.3 mph 4.3 mph 62 % 0 in
18:37 55 °F 43.2 °F 29.9 in North 2.2 mph 4.3 mph 64 % 0 in
18:42 54.9 °F 43 °F 29.9 in WNW 3.6 mph 5.4 mph 64 % 0 in
18:47 54.9 °F 43.2 °F 29.9 in North 2 mph 5.4 mph 65 % 0 in
18:52 54.3 °F 43.3 °F 29.9 in NNW 3.1 mph 4.9 mph 66 % 0 in
18:57 54 °F 43.7 °F 29.9 in NW 2.9 mph 6 mph 68 % 0 in
19:02 53.8 °F 43.9 °F 29.9 in NNW 2.9 mph 6 mph 69 % 0 in
19:07 53.4 °F 44.1 °F 29.9 in North 4 mph 5.8 mph 70 % 0 in
19:12 53.2 °F 43.5 °F 29.9 in NNW 3.1 mph 5.8 mph 70 % 0 in
19:17 52.9 °F 43.3 °F 29.9 in NW 2 mph 4.3 mph 70 % 0 in
19:22 52.5 °F 43.2 °F 30 in North 1.1 mph 3.8 mph 70 % 0 in
19:27 52.3 °F 43.2 °F 30 in Calm   4.3 mph 71 % 0 in
19:32 52 °F 42.8 °F 30 in NNW 2.9 mph 4.3 mph 71 % 0 in
19:37 51.6 °F 42.4 °F 30 in Calm   3.6 mph 71 % 0 in
19:42 51.3 °F 42.4 °F 30 in WNW 1.3 mph 3.1 mph 72 % 0 in
19:47 51.1 °F 42.3 °F 30 in Calm   3.1 mph 72 % 0 in
19:52 50.7 °F 42.4 °F 30 in NNW 0.9 mph 2.5 mph 73 % 0 in
19:57 50.4 °F 42.1 °F 30 in Calm   2.5 mph 73 % 0 in
20:02 50 °F 41.7 °F 30 in Calm   2.5 mph 73 % 0 in
20:07 49.6 °F 41.7 °F 30 in Calm   2.2 mph 74 % 0 in
20:12 49.5 °F 41.5 °F 30 in NW 0.9 mph 2.2 mph 74 % 0 in
20:17 49.1 °F 41.5 °F 30 in Calm   2 mph 75 % 0 in
20:22 48.7 °F 41.2 °F 30 in Calm   2 mph 75 % 0 in
20:27 48.6 °F 41 °F 30 in WNW 2.2 mph 2.2 mph 75 % 0 in
20:32 48.4 °F 41.2 °F 30 in NNW 2.5 mph 2.5 mph 76 % 0 in
20:37 48.2 °F 41 °F 30 in North 2 mph 3.4 mph 76 % 0 in
20:42 48 °F 41.2 °F 30 in WNW 2 mph 3.4 mph 77 % 0 in
20:47 47.8 °F 41 °F 30 in North 2 mph 3.4 mph 77 % 0 in
20:52 47.7 °F 41.5 °F 30 in NW 3.4 mph 3.6 mph 79 % 0 in
20:57 47.5 °F 41.4 °F 30 in NW 1.3 mph 5.6 mph 79 % 0 in
21:02 47.3 °F 41.2 °F 30 in Calm   5.6 mph 79 % 0 in
21:07 47.1 °F 41.4 °F 30 in NE 4 mph 5.4 mph 80 % 0 in
21:12 46.9 °F 41.2 °F 30 in Calm   5.4 mph 80 % 0 in
21:17 46.8 °F 41.4 °F 30 in WNW 1.1 mph 4.3 mph 81 % 0 in
21:22 46.6 °F 41.2 °F 30 in North 1.6 mph 4 mph 81 % 0 in
21:27 46.6 °F 41.4 °F 30 in WNW 3.4 mph 4.3 mph 82 % 0 in
21:32 46.2 °F 41.2 °F 30 in North 2.7 mph 4.7 mph 82 % 0 in
21:37 46.2 °F 41.2 °F 30 in NNE 5.4 mph 5.4 mph 82 % 0 in
21:42 46 °F 40.8 °F 30 in NNW 4.7 mph 5.4 mph 82 % 0 in
21:47 45.9 °F 41.2 °F 30 in WNW 2 mph 5.4 mph 83 % 0 in
21:52 45.9 °F 40.8 °F 30 in West 1.3 mph 4.7 mph 83 % 0 in
21:57 45.7 °F 40.5 °F 30 in WNW 2.5 mph 3.6 mph 82 % 0 in
22:02 45.1 °F 40.1 °F 30 in Calm   4 mph 82 % 0 in
22:07 45.1 °F 39.9 °F 30 in Calm   4 mph 82 % 0 in
22:12 45 °F 39.9 °F 30 in North 1.6 mph 2.5 mph 83 % 0 in
22:17 45 °F 40.3 °F 30 in Calm   2.2 mph 84 % 0 in
22:22 44.8 °F 39.9 °F 30 in North 0.9 mph 3.1 mph 83 % 0 in
22:27 44.2 °F 39.6 °F 30 in NNE 0.9 mph 3.1 mph 83 % 0 in
22:32 44.2 °F 39.6 °F 30 in NW 3.1 mph 4.7 mph 84 % 0 in
22:37 44.2 °F 39.7 °F 30 in NW 2.5 mph 6.5 mph 84 % 0 in
22:43 44.2 °F 40.1 °F 30 in NNW 4.3 mph 6.5 mph 85 % 0 in
22:48 44.2 °F 40.1 °F 30 in NW 4.3 mph 5.8 mph 85 % 0 in
22:53 44.2 °F 39.9 °F 30 in WNW 1.1 mph 5.6 mph 85 % 0 in
22:58 44.1 °F 39.7 °F 30 in WNW 1.1 mph 3.6 mph 85 % 0 in
23:03 43.9 °F 39.6 °F 30 in Calm   3.4 mph 85 % 0 in
23:08 43.3 °F 38.8 °F 30 in Calm   3.1 mph 84 % 0 in
23:13 43 °F 38.5 °F 30 in NE 2.2 mph 3.1 mph 84 % 0 in
23:18 42.6 °F 38.1 °F 30 in ENE 0.9 mph 2.9 mph 84 % 0 in
23:23 42.3 °F 37.9 °F 30 in Calm   2.9 mph 85 % 0 in
23:28 41.9 °F 37.8 °F 30 in Calm   1.6 mph 85 % 0 in
23:33 41.7 °F 37.6 °F 30 in Calm   1.6 mph 85 % 0 in
23:38 41.5 °F 37.6 °F 30 in Calm   2.9 mph 86 % 0 in
23:43 42.1 °F 38.5 °F 30 in NNE 2.9 mph 3.4 mph 87 % 0 in
23:48 42.3 °F 38.8 °F 30 in NNW 3.1 mph 4.7 mph 88 % 0 in
23:53 42.4 °F 39 °F 30 in Calm   4.7 mph 88 % 0 in
23:58 42.3 °F 38.8 °F 30 in Calm   3.6 mph 88 % 0 in
23:59 42.3 °F 38.8 °F 30 in Calm   3.6 mph 88 % 0 in
Le Gheer Warneton
Courtoisie de Weather Underground - 2 mb

Mise a jour : 18/12/2017 21:21:12
Généré par Cumulus 1.9.4 (1099)